sensor_id;sensor_type;location;lat;lon;timestamp;P1;durP1;ratioP1;P2;durP2;ratioP2
14080;SDS011;7116;52.152;5.392;2023-10-31T00:10:17;5.50;;;2.22;;
14080;SDS011;7116;52.152;5.392;2023-10-31T00:22:22;6.63;;;2.33;;
14080;SDS011;7116;52.152;5.392;2023-10-31T00:40:36;6.60;;;3.33;;
14080;SDS011;7116;52.152;5.392;2023-10-31T00:43:01;6.20;;;3.53;;
14080;SDS011;7116;52.152;5.392;2023-10-31T00:45:39;6.05;;;4.07;;
14080;SDS011;7116;52.152;5.392;2023-10-31T01:03:26;8.23;;;5.03;;
14080;SDS011;7116;52.152;5.392;2023-10-31T01:06:12;8.18;;;4.95;;
14080;SDS011;7116;52.152;5.392;2023-10-31T01:11:52;9.00;;;5.00;;
14080;SDS011;7116;52.152;5.392;2023-10-31T01:14:37;8.85;;;5.43;;
14080;SDS011;7116;52.152;5.392;2023-10-31T01:20:37;6.97;;;4.72;;
14080;SDS011;7116;52.152;5.392;2023-10-31T01:23:40;7.88;;;4.47;;
14080;SDS011;7116;52.152;5.392;2023-10-31T01:48:01;6.13;;;4.28;;
14080;SDS011;7116;52.152;5.392;2023-10-31T01:53:44;7.82;;;3.83;;
14080;SDS011;7116;52.152;5.392;2023-10-31T01:56:12;6.85;;;3.65;;
14080;SDS011;7116;52.152;5.392;2023-10-31T01:58:41;7.87;;;4.30;;
14080;SDS011;7116;52.152;5.392;2023-10-31T02:01:08;7.70;;;4.25;;
14080;SDS011;7116;52.152;5.392;2023-10-31T02:03:33;7.83;;;4.00;;
14080;SDS011;7116;52.152;5.392;2023-10-31T02:06:13;7.15;;;3.80;;
14080;SDS011;7116;52.152;5.392;2023-10-31T02:08:41;8.50;;;4.65;;
14080;SDS011;7116;52.152;5.392;2023-10-31T02:11:06;6.63;;;4.93;;
14080;SDS011;7116;52.152;5.392;2023-10-31T02:13:34;9.20;;;4.82;;
14080;SDS011;7116;52.152;5.392;2023-10-31T02:16:00;8.13;;;4.60;;
14080;SDS011;7116;52.152;5.392;2023-10-31T02:18:30;7.82;;;5.30;;
14080;SDS011;7116;52.152;5.392;2023-10-31T02:20:58;8.23;;;4.87;;
14080;SDS011;7116;52.152;5.392;2023-10-31T02:23:26;7.97;;;4.32;;
14080;SDS011;7116;52.152;5.392;2023-10-31T02:25:54;7.97;;;4.60;;
14080;SDS011;7116;52.152;5.392;2023-10-31T02:28:19;10.68;;;5.30;;
14080;SDS011;7116;52.152;5.392;2023-10-31T02:30:44;8.97;;;6.17;;
14080;SDS011;7116;52.152;5.392;2023-10-31T02:33:12;9.03;;;5.80;;
14080;SDS011;7116;52.152;5.392;2023-10-31T02:35:37;10.77;;;6.45;;
14080;SDS011;7116;52.152;5.392;2023-10-31T02:38:05;10.40;;;6.00;;
14080;SDS011;7116;52.152;5.392;2023-10-31T02:40:31;10.07;;;5.85;;
14080;SDS011;7116;52.152;5.392;2023-10-31T02:42:56;6.83;;;5.30;;
14080;SDS011;7116;52.152;5.392;2023-10-31T02:45:21;9.00;;;5.20;;
14080;SDS011;7116;52.152;5.392;2023-10-31T02:47:46;9.67;;;5.37;;
14080;SDS011;7116;52.152;5.392;2023-10-31T02:50:14;7.67;;;5.10;;
14080;SDS011;7116;52.152;5.392;2023-10-31T02:52:39;7.75;;;5.30;;
14080;SDS011;7116;52.152;5.392;2023-10-31T02:55:05;9.93;;;4.50;;
14080;SDS011;7116;52.152;5.392;2023-10-31T02:57:30;7.37;;;4.43;;
14080;SDS011;7116;52.152;5.392;2023-10-31T02:59:57;6.72;;;4.72;;
14080;SDS011;7116;52.152;5.392;2023-10-31T03:08:38;6.65;;;3.55;;
14080;SDS011;7116;52.152;5.392;2023-10-31T03:11:20;4.78;;;3.40;;
14080;SDS011;7116;52.152;5.392;2023-10-31T03:14:05;6.32;;;4.00;;
14080;SDS011;7116;52.152;5.392;2023-10-31T03:16:51;7.63;;;3.63;;
14080;SDS011;7116;52.152;5.392;2023-10-31T03:19:21;5.55;;;3.15;;
14080;SDS011;7116;52.152;5.392;2023-10-31T03:21:57;7.60;;;4.03;;
14080;SDS011;7116;52.152;5.392;2023-10-31T03:24:22;6.17;;;3.80;;
14080;SDS011;7116;52.152;5.392;2023-10-31T03:26:47;8.03;;;4.53;;
14080;SDS011;7116;52.152;5.392;2023-10-31T03:29:15;7.75;;;4.32;;
14080;SDS011;7116;52.152;5.392;2023-10-31T03:31:40;8.03;;;4.30;;
14080;SDS011;7116;52.152;5.392;2023-10-31T03:34:05;6.63;;;4.00;;
14080;SDS011;7116;52.152;5.392;2023-10-31T03:36:40;5.80;;;3.85;;
14080;SDS011;7116;52.152;5.392;2023-10-31T03:39:05;6.23;;;3.60;;
14080;SDS011;7116;52.152;5.392;2023-10-31T03:41:33;8.85;;;3.47;;
14080;SDS011;7116;52.152;5.392;2023-10-31T03:43:58;6.57;;;3.78;;
14080;SDS011;7116;52.152;5.392;2023-10-31T03:46:26;4.97;;;3.33;;
14080;SDS011;7116;52.152;5.392;2023-10-31T03:48:53;6.17;;;2.87;;
14080;SDS011;7116;52.152;5.392;2023-10-31T03:51:19;4.10;;;2.72;;
14080;SDS011;7116;52.152;5.392;2023-10-31T03:53:44;3.37;;;2.47;;
14080;SDS011;7116;52.152;5.392;2023-10-31T03:56:09;6.27;;;2.80;;
14080;SDS011;7116;52.152;5.392;2023-10-31T03:58:37;4.22;;;2.60;;
14080;SDS011;7116;52.152;5.392;2023-10-31T04:01:12;4.20;;;2.35;;
14080;SDS011;7116;52.152;5.392;2023-10-31T04:03:38;3.42;;;2.60;;
14080;SDS011;7116;52.152;5.392;2023-10-31T04:06:03;3.77;;;2.00;;
14080;SDS011;7116;52.152;5.392;2023-10-31T04:08:28;3.40;;;2.13;;
14080;SDS011;7116;52.152;5.392;2023-10-31T04:10:53;4.40;;;2.20;;
14080;SDS011;7116;52.152;5.392;2023-10-31T04:13:19;2.97;;;1.93;;
14080;SDS011;7116;52.152;5.392;2023-10-31T04:15:44;4.17;;;2.07;;
14080;SDS011;7116;52.152;5.392;2023-10-31T04:18:09;5.67;;;2.00;;
14080;SDS011;7116;52.152;5.392;2023-10-31T04:20:41;4.03;;;2.15;;
14080;SDS011;7116;52.152;5.392;2023-10-31T04:23:07;2.83;;;2.10;;
14080;SDS011;7116;52.152;5.392;2023-10-31T04:25:33;2.72;;;1.92;;
14080;SDS011;7116;52.152;5.392;2023-10-31T04:28:05;4.45;;;2.33;;
14080;SDS011;7116;52.152;5.392;2023-10-31T04:30:30;3.13;;;1.70;;
14080;SDS011;7116;52.152;5.392;2023-10-31T04:32:56;4.57;;;2.28;;
14080;SDS011;7116;52.152;5.392;2023-10-31T04:35:23;5.18;;;2.20;;
14080;SDS011;7116;52.152;5.392;2023-10-31T04:37:49;2.77;;;2.43;;
14080;SDS011;7116;52.152;5.392;2023-10-31T04:46:53;3.17;;;1.90;;
14080;SDS011;7116;52.152;5.392;2023-10-31T04:52:39;4.33;;;3.17;;
14080;SDS011;7116;52.152;5.392;2023-10-31T04:55:08;5.07;;;2.83;;
14080;SDS011;7116;52.152;5.392;2023-10-31T04:57:43;3.50;;;1.88;;
14080;SDS011;7116;52.152;5.392;2023-10-31T05:00:11;4.93;;;1.98;;
14080;SDS011;7116;52.152;5.392;2023-10-31T05:02:36;2.43;;;2.10;;
14080;SDS011;7116;52.152;5.392;2023-10-31T05:05:11;4.72;;;1.70;;
14080;SDS011;7116;52.152;5.392;2023-10-31T05:07:36;4.73;;;2.03;;
14080;SDS011;7116;52.152;5.392;2023-10-31T05:10:01;4.50;;;2.07;;
14080;SDS011;7116;52.152;5.392;2023-10-31T05:12:26;2.47;;;1.87;;
14080;SDS011;7116;52.152;5.392;2023-10-31T05:14:52;3.40;;;2.20;;
14080;SDS011;7116;52.152;5.392;2023-10-31T05:17:17;2.87;;;2.10;;
14080;SDS011;7116;52.152;5.392;2023-10-31T05:19:42;2.67;;;1.80;;
14080;SDS011;7116;52.152;5.392;2023-10-31T05:22:07;3.77;;;2.43;;
14080;SDS011;7116;52.152;5.392;2023-10-31T05:24:40;3.20;;;2.03;;
14080;SDS011;7116;52.152;5.392;2023-10-31T05:27:08;2.95;;;2.10;;
14080;SDS011;7116;52.152;5.392;2023-10-31T05:29:38;2.75;;;1.63;;
14080;SDS011;7116;52.152;5.392;2023-10-31T05:32:14;3.00;;;1.98;;
14080;SDS011;7116;52.152;5.392;2023-10-31T05:34:41;2.72;;;2.25;;
14080;SDS011;7116;52.152;5.392;2023-10-31T05:37:07;3.60;;;2.83;;
14080;SDS011;7116;52.152;5.392;2023-10-31T05:39:34;3.47;;;2.23;;
14080;SDS011;7116;52.152;5.392;2023-10-31T05:42:02;3.45;;;2.42;;
14080;SDS011;7116;52.152;5.392;2023-10-31T05:44:28;4.15;;;2.20;;
14080;SDS011;7116;52.152;5.392;2023-10-31T05:46:53;3.87;;;2.63;;
14080;SDS011;7116;52.152;5.392;2023-10-31T05:49:19;2.73;;;2.00;;
14080;SDS011;7116;52.152;5.392;2023-10-31T06:10:28;3.00;;;2.20;;
14080;SDS011;7116;52.152;5.392;2023-10-31T06:13:06;3.30;;;1.98;;
14080;SDS011;7116;52.152;5.392;2023-10-31T06:15:39;2.90;;;1.90;;
14080;SDS011;7116;52.152;5.392;2023-10-31T06:18:05;3.35;;;2.90;;
14080;SDS011;7116;52.152;5.392;2023-10-31T06:20:30;4.17;;;2.53;;
14080;SDS011;7116;52.152;5.392;2023-10-31T06:22:56;6.70;;;2.83;;
14080;SDS011;7116;52.152;5.392;2023-10-31T06:25:21;5.27;;;2.60;;
14080;SDS011;7116;52.152;5.392;2023-10-31T06:27:46;7.53;;;3.40;;
14080;SDS011;7116;52.152;5.392;2023-10-31T06:30:12;5.07;;;3.57;;
14080;SDS011;7116;52.152;5.392;2023-10-31T06:32:37;8.60;;;3.60;;
14080;SDS011;7116;52.152;5.392;2023-10-31T06:35:05;5.65;;;3.85;;
14080;SDS011;7116;52.152;5.392;2023-10-31T06:37:31;6.45;;;4.00;;
14080;SDS011;7116;52.152;5.392;2023-10-31T06:39:56;7.33;;;3.17;;
14080;SDS011;7116;52.152;5.392;2023-10-31T06:42:21;5.07;;;3.30;;
14080;SDS011;7116;52.152;5.392;2023-10-31T06:44:46;5.78;;;4.22;;
14080;SDS011;7116;52.152;5.392;2023-10-31T06:47:11;6.60;;;3.67;;
14080;SDS011;7116;52.152;5.392;2023-10-31T06:49:36;5.53;;;3.70;;
14080;SDS011;7116;52.152;5.392;2023-10-31T06:52:02;7.70;;;3.93;;
14080;SDS011;7116;52.152;5.392;2023-10-31T06:54:27;7.57;;;3.50;;
14080;SDS011;7116;52.152;5.392;2023-10-31T06:56:52;6.40;;;3.63;;
14080;SDS011;7116;52.152;5.392;2023-10-31T06:59:18;5.13;;;3.70;;
14080;SDS011;7116;52.152;5.392;2023-10-31T07:01:43;5.60;;;3.00;;
14080;SDS011;7116;52.152;5.392;2023-10-31T07:04:10;4.88;;;3.30;;
14080;SDS011;7116;52.152;5.392;2023-10-31T07:06:35;4.80;;;3.30;;
14080;SDS011;7116;52.152;5.392;2023-10-31T07:09:00;4.40;;;2.70;;
14080;SDS011;7116;52.152;5.392;2023-10-31T07:11:30;5.95;;;3.00;;
14080;SDS011;7116;52.152;5.392;2023-10-31T07:13:57;3.72;;;2.47;;
14080;SDS011;7116;52.152;5.392;2023-10-31T07:16:22;4.40;;;2.50;;
14080;SDS011;7116;52.152;5.392;2023-10-31T07:18:47;6.17;;;2.80;;
14080;SDS011;7116;52.152;5.392;2023-10-31T07:21:12;4.50;;;2.17;;
14080;SDS011;7116;52.152;5.392;2023-10-31T07:23:38;4.07;;;2.37;;
14080;SDS011;7116;52.152;5.392;2023-10-31T07:26:03;3.40;;;2.30;;
14080;SDS011;7116;52.152;5.392;2023-10-31T07:28:33;3.33;;;2.55;;
14080;SDS011;7116;52.152;5.392;2023-10-31T07:30:59;2.95;;;2.10;;
14080;SDS011;7116;52.152;5.392;2023-10-31T07:33:32;4.30;;;2.17;;
14080;SDS011;7116;52.152;5.392;2023-10-31T07:35:57;4.20;;;1.97;;
14080;SDS011;7116;52.152;5.392;2023-10-31T07:38:31;3.33;;;2.27;;
14080;SDS011;7116;52.152;5.392;2023-10-31T07:40:59;3.47;;;2.30;;
14080;SDS011;7116;52.152;5.392;2023-10-31T07:46:50;3.17;;;2.22;;
14080;SDS011;7116;52.152;5.392;2023-10-31T07:49:20;4.22;;;2.20;;
14080;SDS011;7116;52.152;5.392;2023-10-31T07:52:00;2.83;;;2.42;;
14080;SDS011;7116;52.152;5.392;2023-10-31T07:54:53;2.95;;;2.15;;
14080;SDS011;7116;52.152;5.392;2023-10-31T07:57:46;3.37;;;1.97;;
14080;SDS011;7116;52.152;5.392;2023-10-31T08:10:06;5.75;;;2.10;;
14080;SDS011;7116;52.152;5.392;2023-10-31T08:12:52;4.97;;;2.37;;
14080;SDS011;7116;52.152;5.392;2023-10-31T08:21:38;4.82;;;2.63;;
14080;SDS011;7116;52.152;5.392;2023-10-31T08:27:46;5.10;;;2.20;;
14080;SDS011;7116;52.152;5.392;2023-10-31T08:33:45;4.97;;;2.45;;
14080;SDS011;7116;52.152;5.392;2023-10-31T08:48:46;3.90;;;1.92;;
14080;SDS011;7116;52.152;5.392;2023-10-31T09:03:40;4.10;;;2.20;;
14080;SDS011;7116;52.152;5.392;2023-10-31T09:06:26;4.18;;;2.30;;
14080;SDS011;7116;52.152;5.392;2023-10-31T09:09:14;7.43;;;2.30;;
14080;SDS011;7116;52.152;5.392;2023-10-31T09:12:02;5.57;;;2.50;;
14080;SDS011;7116;52.152;5.392;2023-10-31T09:17:38;5.50;;;2.10;;
14080;SDS011;7116;52.152;5.392;2023-10-31T09:23:04;9.82;;;2.38;;
14080;SDS011;7116;52.152;5.392;2023-10-31T09:25:39;6.60;;;2.17;;
14080;SDS011;7116;52.152;5.392;2023-10-31T09:28:14;9.05;;;2.30;;
14080;SDS011;7116;52.152;5.392;2023-10-31T09:31:02;4.18;;;2.15;;
14080;SDS011;7116;52.152;5.392;2023-10-31T09:33:56;3.83;;;1.90;;
14080;SDS011;7116;52.152;5.392;2023-10-31T09:36:44;5.15;;;1.85;;
14080;SDS011;7116;52.152;5.392;2023-10-31T09:42:05;6.57;;;1.77;;
14080;SDS011;7116;52.152;5.392;2023-10-31T09:44:41;5.68;;;2.15;;
14080;SDS011;7116;52.152;5.392;2023-10-31T09:47:35;6.03;;;1.80;;
14080;SDS011;7116;52.152;5.392;2023-10-31T09:50:13;4.72;;;2.28;;
14080;SDS011;7116;52.152;5.392;2023-10-31T09:58:46;10.77;;;2.83;;
14080;SDS011;7116;52.152;5.392;2023-10-31T10:01:33;6.07;;;2.60;;
14080;SDS011;7116;52.152;5.392;2023-10-31T10:07:08;5.93;;;2.40;;
14080;SDS011;7116;52.152;5.392;2023-10-31T10:09:49;6.78;;;2.63;;
14080;SDS011;7116;52.152;5.392;2023-10-31T10:15:43;6.18;;;2.75;;
14080;SDS011;7116;52.152;5.392;2023-10-31T10:21:11;6.33;;;2.00;;
14080;SDS011;7116;52.152;5.392;2023-10-31T10:24:03;8.82;;;2.50;;
14080;SDS011;7116;52.152;5.392;2023-10-31T10:26:47;5.85;;;2.35;;
14080;SDS011;7116;52.152;5.392;2023-10-31T10:29:12;6.13;;;2.45;;
14080;SDS011;7116;52.152;5.392;2023-10-31T10:31:40;7.30;;;2.40;;
14080;SDS011;7116;52.152;5.392;2023-10-31T10:34:06;4.57;;;2.17;;
14080;SDS011;7116;52.152;5.392;2023-10-31T10:36:32;7.25;;;2.40;;
14080;SDS011;7116;52.152;5.392;2023-10-31T10:38:57;7.50;;;2.50;;
14080;SDS011;7116;52.152;5.392;2023-10-31T10:41:27;6.15;;;2.50;;
14080;SDS011;7116;52.152;5.392;2023-10-31T10:43:56;7.47;;;2.40;;
14080;SDS011;7116;52.152;5.392;2023-10-31T10:46:21;6.88;;;2.30;;
14080;SDS011;7116;52.152;5.392;2023-10-31T10:48:48;5.00;;;1.53;;
14080;SDS011;7116;52.152;5.392;2023-10-31T10:51:18;4.28;;;1.85;;
14080;SDS011;7116;52.152;5.392;2023-10-31T10:53:48;8.10;;;2.60;;
14080;SDS011;7116;52.152;5.392;2023-10-31T10:56:28;6.13;;;2.45;;
14080;SDS011;7116;52.152;5.392;2023-10-31T10:58:55;8.60;;;2.10;;
14080;SDS011;7116;52.152;5.392;2023-10-31T11:01:24;6.70;;;2.43;;
14080;SDS011;7116;52.152;5.392;2023-10-31T11:03:52;5.10;;;1.92;;
14080;SDS011;7116;52.152;5.392;2023-10-31T11:06:21;6.50;;;2.42;;
14080;SDS011;7116;52.152;5.392;2023-10-31T11:08:55;8.50;;;2.45;;
14080;SDS011;7116;52.152;5.392;2023-10-31T11:11:23;8.45;;;2.05;;
14080;SDS011;7116;52.152;5.392;2023-10-31T11:13:50;5.67;;;1.93;;
14080;SDS011;7116;52.152;5.392;2023-10-31T11:16:17;7.43;;;2.20;;
14080;SDS011;7116;52.152;5.392;2023-10-31T11:18:45;4.93;;;2.17;;
14080;SDS011;7116;52.152;5.392;2023-10-31T11:21:11;5.57;;;2.50;;
14080;SDS011;7116;52.152;5.392;2023-10-31T11:23:37;6.50;;;2.17;;
14080;SDS011;7116;52.152;5.392;2023-10-31T11:26:06;12.13;;;2.38;;
14080;SDS011;7116;52.152;5.392;2023-10-31T11:28:33;7.13;;;2.17;;
14080;SDS011;7116;52.152;5.392;2023-10-31T11:30:58;6.70;;;2.30;;
14080;SDS011;7116;52.152;5.392;2023-10-31T11:33:26;4.82;;;1.92;;
14080;SDS011;7116;52.152;5.392;2023-10-31T11:35:51;4.93;;;2.10;;
14080;SDS011;7116;52.152;5.392;2023-10-31T11:38:31;7.50;;;2.13;;
14080;SDS011;7116;52.152;5.392;2023-10-31T11:40:58;5.40;;;2.35;;
14080;SDS011;7116;52.152;5.392;2023-10-31T11:43:27;6.97;;;2.05;;
14080;SDS011;7116;52.152;5.392;2023-10-31T11:46:01;10.87;;;2.50;;
14080;SDS011;7116;52.152;5.392;2023-10-31T11:48:48;9.07;;;2.70;;
14080;SDS011;7116;52.152;5.392;2023-10-31T11:51:15;6.13;;;2.53;;
14080;SDS011;7116;52.152;5.392;2023-10-31T11:53:40;6.60;;;3.00;;
14080;SDS011;7116;52.152;5.392;2023-10-31T11:56:06;7.37;;;2.33;;
14080;SDS011;7116;52.152;5.392;2023-10-31T11:58:31;6.10;;;2.38;;
14080;SDS011;7116;52.152;5.392;2023-10-31T12:01:06;8.87;;;2.93;;
14080;SDS011;7116;52.152;5.392;2023-10-31T12:03:41;6.32;;;2.95;;
14080;SDS011;7116;52.152;5.392;2023-10-31T12:06:08;8.20;;;2.90;;
14080;SDS011;7116;52.152;5.392;2023-10-31T12:08:38;6.72;;;3.30;;
14080;SDS011;7116;52.152;5.392;2023-10-31T12:11:10;6.35;;;3.25;;
14080;SDS011;7116;52.152;5.392;2023-10-31T12:13:50;10.93;;;3.15;;
14080;SDS011;7116;52.152;5.392;2023-10-31T12:16:15;5.75;;;2.63;;
14080;SDS011;7116;52.152;5.392;2023-10-31T12:18:41;10.77;;;3.53;;
14080;SDS011;7116;52.152;5.392;2023-10-31T12:21:06;8.27;;;3.43;;
14080;SDS011;7116;52.152;5.392;2023-10-31T12:23:33;7.03;;;3.23;;
14080;SDS011;7116;52.152;5.392;2023-10-31T12:25:58;9.17;;;3.67;;
14080;SDS011;7116;52.152;5.392;2023-10-31T12:28:24;10.83;;;4.20;;
14080;SDS011;7116;52.152;5.392;2023-10-31T12:30:50;8.85;;;5.00;;
14080;SDS011;7116;52.152;5.392;2023-10-31T12:33:17;8.93;;;5.73;;
14080;SDS011;7116;52.152;5.392;2023-10-31T12:35:42;17.25;;;8.43;;
14080;SDS011;7116;52.152;5.392;2023-10-31T12:38:11;13.23;;;9.53;;
14080;SDS011;7116;52.152;5.392;2023-10-31T12:40:39;15.32;;;10.07;;
14080;SDS011;7116;52.152;5.392;2023-10-31T12:43:05;16.92;;;10.10;;
14080;SDS011;7116;52.152;5.392;2023-10-31T12:45:30;16.60;;;10.53;;
14080;SDS011;7116;52.152;5.392;2023-10-31T12:48:09;20.40;;;10.87;;
14080;SDS011;7116;52.152;5.392;2023-10-31T12:50:35;17.60;;;10.13;;
14080;SDS011;7116;52.152;5.392;2023-10-31T12:53:04;17.73;;;9.90;;
14080;SDS011;7116;52.152;5.392;2023-10-31T12:55:41;18.95;;;10.32;;
14080;SDS011;7116;52.152;5.392;2023-10-31T12:58:07;16.30;;;10.20;;
14080;SDS011;7116;52.152;5.392;2023-10-31T13:00:35;14.45;;;9.18;;
14080;SDS011;7116;52.152;5.392;2023-10-31T13:03:02;18.75;;;9.93;;
14080;SDS011;7116;52.152;5.392;2023-10-31T13:05:28;14.70;;;9.20;;
14080;SDS011;7116;52.152;5.392;2023-10-31T13:07:54;16.02;;;9.65;;
14080;SDS011;7116;52.152;5.392;2023-10-31T13:10:20;17.03;;;10.47;;
14080;SDS011;7116;52.152;5.392;2023-10-31T13:12:46;15.73;;;10.40;;
14080;SDS011;7116;52.152;5.392;2023-10-31T13:15:14;18.70;;;10.90;;
14080;SDS011;7116;52.152;5.392;2023-10-31T13:17:39;18.58;;;10.77;;
14080;SDS011;7116;52.152;5.392;2023-10-31T13:20:07;19.67;;;12.10;;
14080;SDS011;7116;52.152;5.392;2023-10-31T13:22:35;21.50;;;12.98;;
14080;SDS011;7116;52.152;5.392;2023-10-31T13:25:01;23.13;;;13.37;;
14080;SDS011;7116;52.152;5.392;2023-10-31T13:27:26;24.38;;;14.05;;
14080;SDS011;7116;52.152;5.392;2023-10-31T13:29:51;26.20;;;13.77;;
14080;SDS011;7116;52.152;5.392;2023-10-31T13:32:16;21.67;;;13.00;;
14080;SDS011;7116;52.152;5.392;2023-10-31T13:34:42;24.83;;;13.93;;
14080;SDS011;7116;52.152;5.392;2023-10-31T13:37:07;22.73;;;13.63;;
14080;SDS011;7116;52.152;5.392;2023-10-31T13:39:33;18.85;;;13.52;;
14080;SDS011;7116;52.152;5.392;2023-10-31T13:41:58;19.07;;;12.93;;
14080;SDS011;7116;52.152;5.392;2023-10-31T13:44:23;19.50;;;11.67;;
14080;SDS011;7116;52.152;5.392;2023-10-31T13:46:49;18.47;;;12.97;;
14080;SDS011;7116;52.152;5.392;2023-10-31T13:49:14;20.33;;;12.37;;
14080;SDS011;7116;52.152;5.392;2023-10-31T13:51:47;18.02;;;12.88;;
14080;SDS011;7116;52.152;5.392;2023-10-31T13:54:14;23.60;;;12.77;;
14080;SDS011;7116;52.152;5.392;2023-10-31T13:56:42;15.70;;;10.68;;
14080;SDS011;7116;52.152;5.392;2023-10-31T13:59:07;16.83;;;10.63;;
14080;SDS011;7116;52.152;5.392;2023-10-31T14:01:32;16.47;;;10.70;;
14080;SDS011;7116;52.152;5.392;2023-10-31T14:03:58;16.00;;;10.20;;
14080;SDS011;7116;52.152;5.392;2023-10-31T14:06:23;18.43;;;10.30;;
14080;SDS011;7116;52.152;5.392;2023-10-31T14:08:54;15.30;;;8.48;;
14080;SDS011;7116;52.152;5.392;2023-10-31T14:11:21;11.30;;;8.67;;
14080;SDS011;7116;52.152;5.392;2023-10-31T14:13:46;14.57;;;7.93;;
14080;SDS011;7116;52.152;5.392;2023-10-31T14:16:11;12.97;;;8.47;;
14080;SDS011;7116;52.152;5.392;2023-10-31T14:18:37;12.47;;;8.07;;
14080;SDS011;7116;52.152;5.392;2023-10-31T14:21:02;15.77;;;8.63;;
14080;SDS011;7116;52.152;5.392;2023-10-31T14:23:28;11.82;;;8.23;;
14080;SDS011;7116;52.152;5.392;2023-10-31T14:25:53;12.00;;;8.80;;
14080;SDS011;7116;52.152;5.392;2023-10-31T14:28:18;12.37;;;8.70;;
14080;SDS011;7116;52.152;5.392;2023-10-31T14:30:43;12.47;;;8.57;;
14080;SDS011;7116;52.152;5.392;2023-10-31T14:33:09;13.97;;;8.97;;
14080;SDS011;7116;52.152;5.392;2023-10-31T14:35:34;14.23;;;9.13;;
14080;SDS011;7116;52.152;5.392;2023-10-31T14:38:00;15.85;;;9.43;;
14080;SDS011;7116;52.152;5.392;2023-10-31T14:40:25;11.87;;;9.20;;
14080;SDS011;7116;52.152;5.392;2023-10-31T14:42:50;12.90;;;8.83;;
14080;SDS011;7116;52.152;5.392;2023-10-31T14:45:16;14.23;;;10.13;;
14080;SDS011;7116;52.152;5.392;2023-10-31T14:47:43;12.45;;;8.93;;
14080;SDS011;7116;52.152;5.392;2023-10-31T14:50:09;15.27;;;10.10;;
14080;SDS011;7116;52.152;5.392;2023-10-31T14:52:34;17.27;;;11.13;;
14080;SDS011;7116;52.152;5.392;2023-10-31T14:54:59;17.70;;;11.57;;
14080;SDS011;7116;52.152;5.392;2023-10-31T14:57:24;17.73;;;11.90;;
14080;SDS011;7116;52.152;5.392;2023-10-31T14:59:49;20.47;;;13.10;;
14080;SDS011;7116;52.152;5.392;2023-10-31T15:02:15;21.20;;;13.23;;
14080;SDS011;7116;52.152;5.392;2023-10-31T15:04:40;18.53;;;12.90;;
14080;SDS011;7116;52.152;5.392;2023-10-31T15:07:05;18.27;;;13.80;;
14080;SDS011;7116;52.152;5.392;2023-10-31T15:09:30;17.17;;;12.67;;
14080;SDS011;7116;52.152;5.392;2023-10-31T15:11:56;17.17;;;14.40;;
14080;SDS011;7116;52.152;5.392;2023-10-31T15:14:23;24.07;;;14.33;;
14080;SDS011;7116;52.152;5.392;2023-10-31T15:16:49;17.20;;;12.25;;
14080;SDS011;7116;52.152;5.392;2023-10-31T15:19:14;20.73;;;13.40;;
14080;SDS011;7116;52.152;5.392;2023-10-31T15:21:39;16.13;;;12.40;;
14080;SDS011;7116;52.152;5.392;2023-10-31T15:24:04;18.83;;;12.50;;
14080;SDS011;7116;52.152;5.392;2023-10-31T15:26:32;17.23;;;12.57;;
14080;SDS011;7116;52.152;5.392;2023-10-31T15:28:58;14.50;;;11.40;;
14080;SDS011;7116;52.152;5.392;2023-10-31T15:31:23;17.90;;;11.70;;
14080;SDS011;7116;52.152;5.392;2023-10-31T15:33:48;16.60;;;11.17;;
14080;SDS011;7116;52.152;5.392;2023-10-31T15:36:16;17.63;;;10.40;;
14080;SDS011;7116;52.152;5.392;2023-10-31T15:38:41;12.20;;;10.27;;
14080;SDS011;7116;52.152;5.392;2023-10-31T15:41:07;12.43;;;9.50;;
14080;SDS011;7116;52.152;5.392;2023-10-31T15:43:33;11.65;;;9.10;;
14080;SDS011;7116;52.152;5.392;2023-10-31T15:45:58;15.33;;;9.27;;
14080;SDS011;7116;52.152;5.392;2023-10-31T15:48:23;14.37;;;10.23;;
14080;SDS011;7116;52.152;5.392;2023-10-31T15:50:48;13.63;;;9.33;;
14080;SDS011;7116;52.152;5.392;2023-10-31T15:53:13;14.67;;;9.57;;
14080;SDS011;7116;52.152;5.392;2023-10-31T16:02:12;11.82;;;8.55;;
14080;SDS011;7116;52.152;5.392;2023-10-31T16:04:47;10.77;;;8.45;;
14080;SDS011;7116;52.152;5.392;2023-10-31T16:07:33;13.45;;;8.55;;
14080;SDS011;7116;52.152;5.392;2023-10-31T16:10:08;11.35;;;8.68;;
14080;SDS011;7116;52.152;5.392;2023-10-31T16:13:01;10.13;;;7.97;;
14080;SDS011;7116;52.152;5.392;2023-10-31T16:36:44;11.38;;;7.68;;
14080;SDS011;7116;52.152;5.392;2023-10-31T16:39:20;12.23;;;8.35;;
14080;SDS011;7116;52.152;5.392;2023-10-31T16:45:06;12.27;;;8.00;;
14080;SDS011;7116;52.152;5.392;2023-10-31T16:53:45;14.80;;;8.88;;
14080;SDS011;7116;52.152;5.392;2023-10-31T16:56:11;11.20;;;8.10;;
14080;SDS011;7116;52.152;5.392;2023-10-31T16:58:39;14.07;;;8.93;;
14080;SDS011;7116;52.152;5.392;2023-10-31T17:01:05;15.35;;;13.77;;
14080;SDS011;7116;52.152;5.392;2023-10-31T17:03:31;11.10;;;8.93;;
14080;SDS011;7116;52.152;5.392;2023-10-31T17:05:58;13.48;;;7.65;;
14080;SDS011;7116;52.152;5.392;2023-10-31T17:08:23;13.00;;;9.13;;
14080;SDS011;7116;52.152;5.392;2023-10-31T17:10:48;11.00;;;7.90;;
14080;SDS011;7116;52.152;5.392;2023-10-31T17:13:14;12.30;;;8.27;;
14080;SDS011;7116;52.152;5.392;2023-10-31T17:15:39;13.20;;;8.57;;
14080;SDS011;7116;52.152;5.392;2023-10-31T17:18:04;11.53;;;7.37;;
14080;SDS011;7116;52.152;5.392;2023-10-31T17:20:35;13.02;;;8.80;;
14080;SDS011;7116;52.152;5.392;2023-10-31T17:23:00;10.77;;;7.82;;
14080;SDS011;7116;52.152;5.392;2023-10-31T17:25:28;12.07;;;8.35;;
14080;SDS011;7116;52.152;5.392;2023-10-31T17:27:56;13.35;;;9.32;;
14080;SDS011;7116;52.152;5.392;2023-10-31T17:30:21;11.60;;;8.30;;
14080;SDS011;7116;52.152;5.392;2023-10-31T17:32:46;11.57;;;8.50;;
14080;SDS011;7116;52.152;5.392;2023-10-31T17:35:11;11.43;;;7.85;;
14080;SDS011;7116;52.152;5.392;2023-10-31T17:37:44;11.63;;;7.28;;
14080;SDS011;7116;52.152;5.392;2023-10-31T17:40:16;10.63;;;6.47;;
14080;SDS011;7116;52.152;5.392;2023-10-31T17:42:42;10.33;;;7.50;;
14080;SDS011;7116;52.152;5.392;2023-10-31T17:45:07;11.43;;;7.30;;
14080;SDS011;7116;52.152;5.392;2023-10-31T17:47:42;11.15;;;7.65;;
14080;SDS011;7116;52.152;5.392;2023-10-31T17:50:08;11.33;;;7.07;;
14080;SDS011;7116;52.152;5.392;2023-10-31T17:52:34;11.02;;;8.43;;
14080;SDS011;7116;52.152;5.392;2023-10-31T17:54:59;13.53;;;8.17;;
14080;SDS011;7116;52.152;5.392;2023-10-31T17:57:24;11.50;;;8.57;;
14080;SDS011;7116;52.152;5.392;2023-10-31T17:59:49;12.57;;;8.63;;
14080;SDS011;7116;52.152;5.392;2023-10-31T18:02:15;10.60;;;8.20;;
14080;SDS011;7116;52.152;5.392;2023-10-31T18:04:40;10.38;;;7.55;;
14080;SDS011;7116;52.152;5.392;2023-10-31T18:07:06;10.93;;;7.80;;
14080;SDS011;7116;52.152;5.392;2023-10-31T18:09:31;10.73;;;7.87;;
14080;SDS011;7116;52.152;5.392;2023-10-31T18:11:56;11.40;;;9.07;;
14080;SDS011;7116;52.152;5.392;2023-10-31T18:14:21;13.53;;;8.17;;
14080;SDS011;7116;52.152;5.392;2023-10-31T18:16:46;11.87;;;8.07;;
14080;SDS011;7116;52.152;5.392;2023-10-31T18:19:12;10.23;;;7.67;;
14080;SDS011;7116;52.152;5.392;2023-10-31T18:21:37;10.60;;;8.33;;
14080;SDS011;7116;52.152;5.392;2023-10-31T18:24:02;9.03;;;7.53;;
14080;SDS011;7116;52.152;5.392;2023-10-31T18:26:27;11.30;;;8.63;;
14080;SDS011;7116;52.152;5.392;2023-10-31T18:28:53;14.67;;;9.20;;
14080;SDS011;7116;52.152;5.392;2023-10-31T18:31:18;13.97;;;8.50;;
14080;SDS011;7116;52.152;5.392;2023-10-31T18:33:43;10.80;;;8.40;;
14080;SDS011;7116;52.152;5.392;2023-10-31T18:36:08;15.03;;;9.73;;
14080;SDS011;7116;52.152;5.392;2023-10-31T18:38:34;14.23;;;10.40;;
14080;SDS011;7116;52.152;5.392;2023-10-31T18:40:59;13.03;;;9.43;;
14080;SDS011;7116;52.152;5.392;2023-10-31T18:43:25;11.65;;;9.02;;
14080;SDS011;7116;52.152;5.392;2023-10-31T18:45:50;10.37;;;7.93;;
14080;SDS011;7116;52.152;5.392;2023-10-31T18:48:15;11.97;;;8.33;;
14080;SDS011;7116;52.152;5.392;2023-10-31T18:50:41;12.87;;;8.83;;